Time;durP1;ratioP1;P1;durP2;ratioP2;P2;SDS_P1;SDS_P2;PMS_P1;PMS_P2;Temp;Humidity;BMP_temperature;BMP_pressure;BME280_temperature;BME280_humidity;BME280_pressure;Samples;Min_cycle;Max_cycle;Signal;HPM_P1;HPM_P2
2022/07/01 00:02:44;;;;;;;7.27;6.53;;;19.20;99.90;;;;;;8374545;28;20243;-71
2022/07/01 00:06:44;;;;;;;6.60;6.00;;;19.10;99.90;;;;;;8372029;28;20213;-71
2022/07/01 00:10:45;;;;;;;7.43;6.70;;;19.10;99.90;;;;;;8378619;28;20193;-71
2022/07/01 00:14:46;;;;;;;7.83;7.13;;;19.00;99.90;;;;;;8372051;28;20189;-71
2022/07/01 00:18:47;;;;;;;7.70;7.00;;;19.00;99.90;;;;;;8370000;28;20183;-71
2022/07/01 00:22:48;;;;;;;7.40;6.70;;;18.90;99.90;;;;;;8364478;28;20586;-72
2022/07/01 00:26:49;;;;;;;8.37;7.57;;;18.90;99.90;;;;;;8367345;28;20268;-71
2022/07/01 00:30:50;;;;;;;8.60;7.80;;;18.80;99.90;;;;;;8373430;28;20326;-72
2022/07/01 00:34:50;;;;;;;7.87;7.17;;;18.90;99.90;;;;;;8373273;28;20223;-71
2022/07/01 00:38:51;;;;;;;7.57;6.90;;;18.80;99.90;;;;;;8368009;28;20178;-72
2022/07/01 00:42:52;;;;;;;10.80;8.23;;;18.80;99.90;;;;;;8363012;28;20209;-71
2022/07/01 00:46:53;;;;;;;9.67;8.57;;;18.90;99.90;;;;;;8363609;28;20209;-72
2022/07/01 00:50:54;;;;;;;9.33;7.53;;;18.90;99.90;;;;;;8364564;28;20186;-71
2022/07/01 00:54:57;;;;;;;9.60;8.63;;;18.80;99.90;;;;;;8366000;28;20197;-72
2022/07/01 00:58:58;;;;;;;9.07;8.23;;;18.80;99.90;;;;;;8371256;28;20189;-72
2022/07/01 01:02:59;;;;;;;8.67;7.57;;;18.90;99.90;;;;;;8370308;28;20185;-72
2022/07/01 01:07:03;;;;;;;9.27;8.37;;;18.80;99.90;;;;;;8375665;28;20219;-71
2022/07/01 01:11:05;;;;;;;9.07;8.17;;;18.90;99.90;;;;;;8370838;28;20177;-72
2022/07/01 01:15:06;;;;;;;9.03;8.23;;;18.90;99.90;;;;;;8378431;28;20186;-72
2022/07/01 01:19:07;;;;;;;9.40;8.17;;;18.90;99.90;;;;;;8370789;28;20225;-71
2022/07/01 01:23:08;;;;;;;8.17;7.47;;;18.80;99.90;;;;;;8378295;28;20196;-71
2022/07/01 01:27:09;;;;;;;8.47;7.67;;;18.80;99.90;;;;;;8376039;28;20196;-72
2022/07/01 01:31:10;;;;;;;8.63;7.83;;;18.80;99.90;;;;;;8370862;28;20230;-72
2022/07/01 01:35:13;;;;;;;8.90;8.10;;;18.80;99.90;;;;;;8372663;28;20288;-72
2022/07/01 01:39:15;;;;;;;8.60;7.80;;;18.70;99.90;;;;;;8372053;28;20181;-71
2022/07/01 01:43:16;;;;;;;8.43;7.63;;;18.70;99.90;;;;;;8371449;28;20186;-72
2022/07/01 01:47:17;;;;;;;8.47;7.57;;;18.70;99.90;;;;;;8371375;28;20231;-71
2022/07/01 01:51:19;;;;;;;9.33;8.53;;;18.70;99.90;;;;;;8373711;28;20249;-72
2022/07/01 01:55:20;;;;;;;8.90;8.10;;;18.60;99.90;;;;;;8369510;28;20177;-72
2022/07/01 01:59:21;;;;;;;10.50;8.10;;;18.60;99.90;;;;;;8365952;28;20280;-72
2022/07/01 02:03:22;;;;;;;8.27;7.33;;;18.60;99.90;;;;;;8374302;28;20185;-72
2022/07/01 02:07:23;;;;;;;9.33;8.43;;;18.60;99.90;;;;;;8374555;28;20209;-72
2022/07/01 02:11:24;;;;;;;9.27;8.37;;;18.50;99.90;;;;;;8369625;28;20186;-72
2022/07/01 02:15:24;;;;;;;9.90;8.50;;;18.50;99.90;;;;;;8376280;28;20186;-72
2022/07/01 02:19:25;;;;;;;8.70;7.90;;;18.50;99.90;;;;;;8375274;28;20181;-72
2022/07/01 02:23:26;;;;;;;9.07;8.27;;;18.60;99.90;;;;;;8384476;28;20182;-71
2022/07/01 02:27:27;;;;;;;8.53;7.63;;;18.60;99.90;;;;;;8374621;28;20212;-72
2022/07/01 02:31:28;;;;;;;8.57;7.77;;;18.60;99.90;;;;;;8374495;28;20224;-71
2022/07/01 02:35:29;;;;;;;9.37;8.43;;;18.60;99.90;;;;;;8370008;28;20266;-72
2022/07/01 02:39:31;;;;;;;8.60;7.80;;;18.50;99.90;;;;;;8368560;28;20236;-72
2022/07/01 02:43:32;;;;;;;14.80;10.43;;;18.40;99.90;;;;;;8372018;28;20182;-73
2022/07/01 02:47:37;;;;;;;9.03;8.23;;;18.40;99.90;;;;;;8377010;28;20209;-72
2022/07/01 02:51:38;;;;;;;12.23;9.93;;;18.30;99.90;;;;;;8374824;28;20300;-72
2022/07/01 02:55:39;;;;;;;11.60;9.53;;;18.30;99.90;;;;;;8371735;28;20182;-71
2022/07/01 02:59:39;;;;;;;11.87;10.67;;;18.40;99.90;;;;;;8374857;28;20183;-72
2022/07/01 03:03:40;;;;;;;11.00;10.00;;;18.50;99.90;;;;;;8374055;28;20193;-71
2022/07/01 03:07:41;;;;;;;10.30;9.30;;;18.60;99.90;;;;;;8374657;28;20201;-72
2022/07/01 03:11:42;;;;;;;10.27;9.17;;;18.70;99.90;;;;;;8373524;28;20227;-71
2022/07/01 03:15:43;;;;;;;11.63;9.43;;;18.70;99.90;;;;;;8370989;28;20231;-71
2022/07/01 03:19:44;;;;;;;11.73;9.43;;;18.80;99.90;;;;;;8373592;28;20231;-71
2022/07/01 03:23:45;;;;;;;12.13;10.13;;;19.00;99.90;;;;;;8383475;28;20185;-73
2022/07/01 03:27:47;;;;;;;11.20;8.50;;;19.10;99.90;;;;;;8378095;28;20212;-72
2022/07/01 03:31:48;;;;;;;11.20;10.17;;;19.30;99.90;;;;;;8378280;28;20183;-72
2022/07/01 03:35:49;;;;;;;11.23;9.80;;;19.30;99.90;;;;;;8375233;28;20184;-72
2022/07/01 03:39:50;;;;;;;11.03;9.07;;;19.70;99.90;;;;;;8373971;28;20192;-73
2022/07/01 03:43:51;;;;;;;13.00;9.63;;;20.20;99.90;;;;;;8372690;28;20180;-72
2022/07/01 03:47:52;;;;;;;11.60;10.40;;;20.70;99.90;;;;;;8372157;28;20260;-73
2022/07/01 03:51:53;;;;;;;9.63;8.63;;;20.90;99.90;;;;;;8373356;28;20177;-72
2022/07/01 03:55:53;;;;;;;9.73;7.40;;;21.20;99.90;;;;;;8373898;28;20256;-72
2022/07/01 03:59:54;;;;;;;8.73;7.10;;;21.90;99.90;;;;;;8370838;28;20273;-71
2022/07/01 04:03:55;;;;;;;9.50;8.50;;;22.10;99.90;;;;;;8379114;28;20254;-72
2022/07/01 04:07:56;;;;;;;10.63;8.00;;;22.50;99.90;;;;;;8375684;28;20196;-72
2022/07/01 04:11:57;;;;;;;12.37;8.37;;;22.90;99.90;;;;;;8373152;28;20184;-75
2022/07/01 04:16:00;;;;;;;8.47;7.63;;;23.70;99.90;;;;;;8370731;28;20202;-71
2022/07/01 04:20:01;;;;;;;11.47;8.87;;;24.00;99.90;;;;;;8376081;28;20192;-71
2022/07/01 04:24:02;;;;;;;11.97;8.60;;;23.80;99.90;;;;;;8365076;28;20304;-69
2022/07/01 04:28:03;;;;;;;8.63;7.63;;;23.80;1.00;;;;;;8365532;28;20213;-71
2022/07/01 04:32:04;;;;;;;7.90;7.10;;;24.00;99.90;;;;;;8379674;28;20180;-71
2022/07/01 04:36:05;;;;;;;8.83;8.00;;;24.20;99.90;;;;;;8371771;28;20181;-71
2022/07/01 04:40:07;;;;;;;9.23;8.03;;;24.50;99.90;;;;;;8377767;28;20188;-71
2022/07/01 04:44:08;;;;;;;12.33;8.57;;;25.20;99.90;;;;;;8383297;28;20195;-72
2022/07/01 04:48:09;;;;;;;8.70;7.90;;;25.90;1.00;;;;;;8381581;28;20214;-71
2022/07/01 04:52:10;;;;;;;9.45;8.43;;;26.50;99.90;;;;;;8375590;28;20207;-71
2022/07/01 04:56:11;;;;;;;11.23;10.05;;;27.20;97.60;;;;;;8378096;28;20184;-73
2022/07/01 05:00:12;;;;;;;13.70;10.25;;;27.20;1.00;;;;;;8376882;28;20177;-71
2022/07/01 05:04:13;;;;;;;14.70;9.57;;;27.30;80.30;;;;;;8375543;28;20201;-71
2022/07/01 05:08:14;;;;;;;11.38;9.05;;;27.20;99.90;;;;;;8377073;28;20244;-71
2022/07/01 05:12:14;;;;;;;7.85;7.05;;;27.40;75.00;;;;;;8377223;28;20212;-71
2022/07/01 05:16:15;;;;;;;11.45;9.68;;;27.50;36.80;;;;;;8373219;28;20276;-71
2022/07/01 05:24:36;;;;;;;10.23;8.68;;;27.20;42.50;;;;;;8368337;28;20292;-71
2022/07/01 05:28:36;;;;;;;8.27;7.57;;;26.70;99.90;;;;;;8380869;28;20303;-71
2022/07/01 05:32:37;;;;;;;13.00;9.88;;;26.50;99.90;;;;;;8378129;28;20181;-72
2022/07/01 05:36:38;;;;;;;11.05;9.32;;;26.20;99.90;;;;;;8381597;28;20178;-70
2022/07/01 05:40:39;;;;;;;10.07;9.07;;;25.80;1.00;;;;;;8371833;28;20182;-71
2022/07/01 05:44:40;;;;;;;14.07;10.77;;;25.60;99.90;;;;;;8375869;28;20249;-67
2022/07/01 05:48:40;;;;;;;11.02;9.68;;;25.50;99.90;;;;;;8370612;28;20213;-65
2022/07/01 05:52:44;;;;;;;13.10;9.80;;;25.40;99.90;;;;;;8373489;28;20191;-68
2022/07/01 05:56:44;;;;;;;10.40;9.40;;;25.40;99.90;;;;;;8380974;28;20182;-70
2022/07/01 06:00:45;;;;;;;15.27;9.30;;;25.40;99.90;;;;;;8374695;28;20186;-72
2022/07/01 06:04:46;;;;;;;16.38;11.07;;;25.40;1.00;;;;;;8377183;28;20202;-70
2022/07/01 06:08:47;;;;;;;11.02;9.90;;;25.30;1.00;;;;;;8377996;28;20382;-71
2022/07/01 06:12:48;;;;;;;14.25;11.35;;;25.40;1.00;;;;;;8382020;28;20340;-70
2022/07/01 06:16:48;;;;;;;13.30;10.88;;;25.40;1.00;;;;;;8379157;28;20666;-72
2022/07/01 06:20:49;;;;;;;11.93;9.90;;;25.70;99.90;;;;;;8376051;28;20181;-71
2022/07/01 06:24:50;;;;;;;11.38;10.20;;;25.90;99.90;;;;;;8371427;28;20197;-66
2022/07/01 06:28:51;;;;;;;12.48;10.75;;;26.30;99.90;;;;;;8372686;28;20244;-71
2022/07/01 06:32:52;;;;;;;11.77;10.63;;;26.20;1.00;;;;;;8381634;28;20182;-71
2022/07/01 06:36:52;;;;;;;12.63;9.68;;;26.20;1.00;;;;;;8380404;28;20185;-65
2022/07/01 06:45:13;;;;;;;10.88;9.77;;;26.60;99.90;;;;;;8379728;28;20277;-71
2022/07/01 06:49:14;;;;;;;10.63;9.52;;;26.70;99.90;;;;;;8374759;28;20209;-69
2022/07/01 06:53:15;;;;;;;16.80;10.05;;;26.80;99.90;;;;;;8369677;28;20250;-70
2022/07/01 06:57:15;;;;;;;10.48;9.48;;;27.00;99.90;;;;;;8373587;28;20266;-70
2022/07/01 07:01:16;;;;;;;11.43;10.02;;;27.10;99.90;;;;;;8369533;28;20243;-68
2022/07/01 07:05:17;;;;;;;14.07;9.20;;;27.30;99.90;;;;;;8373804;28;20197;-69
2022/07/01 07:09:18;;;;;;;11.63;10.45;;;27.30;99.90;;;;;;8369435;28;20212;-65
2022/07/01 07:13:19;;;;;;;12.18;10.05;;;27.50;99.90;;;;;;8375843;28;20178;-69
2022/07/01 07:17:20;;;;;;;11.20;10.05;;;27.60;99.90;;;;;;8370126;28;20263;-69
2022/07/01 07:21:21;;;;;;;11.50;10.32;;;27.60;58.30;;;;;;8373305;28;20182;-68
2022/07/01 07:25:22;;;;;;;12.32;11.13;;;27.90;73.30;;;;;;8374243;28;20268;-71
2022/07/01 07:29:23;;;;;;;11.25;10.10;;;28.00;1.00;;;;;;8373985;28;20217;-71
2022/07/01 07:33:23;;;;;;;11.98;10.88;;;27.90;1.00;;;;;;8372975;28;20492;-70
2022/07/01 07:37:24;;;;;;;12.23;10.93;;;28.00;21.20;;;;;;8365495;28;20190;-65
2022/07/01 07:41:25;;;;;;;12.85;11.68;;;28.30;1.00;;;;;;8371344;28;20272;-69
2022/07/01 07:45:26;;;;;;;12.75;10.50;;;28.50;1.00;;;;;;8367435;28;20212;-66
2022/07/01 07:49:27;;;;;;;11.35;10.30;;;28.70;1.00;;;;;;8369181;28;20208;-69
2022/07/01 07:53:28;;;;;;;11.55;10.35;;;29.10;1.00;;;;;;8363403;28;20505;-66
2022/07/01 07:57:30;;;;;;;13.23;10.95;;;29.40;99.90;;;;;;8371984;28;20427;-69
2022/07/01 08:01:30;;;;;;;12.13;11.02;;;29.40;99.90;;;;;;8371469;28;20189;-64
2022/07/01 08:05:31;;;;;;;11.27;10.20;;;29.40;99.90;;;;;;8370302;28;20189;-65
2022/07/01 08:09:34;;;;;;;12.80;11.55;;;29.40;99.90;;;;;;8376483;28;20296;-65
2022/07/01 08:13:35;;;;;;;12.60;11.27;;;29.40;99.90;;;;;;8374451;28;20185;-64
2022/07/01 08:17:36;;;;;;;12.75;11.05;;;29.10;99.90;;;;;;8365357;28;20173;-71
2022/07/01 08:21:36;;;;;;;12.35;11.15;;;29.30;99.90;;;;;;8375517;28;20185;-69
2022/07/01 08:25:37;;;;;;;14.25;12.95;;;29.70;99.90;;;;;;8381928;28;20234;-70
2022/07/01 08:29:39;;;;;;;13.05;11.73;;;29.90;99.90;;;;;;8376139;28;20217;-71
2022/07/01 08:33:41;;;;;;;12.10;10.90;;;30.30;99.90;;;;;;8373799;28;20205;-70
2022/07/01 08:37:42;;;;;;;13.23;11.23;;;30.60;99.90;;;;;;8373816;28;20196;-67
2022/07/01 08:41:43;;;;;;;11.95;10.85;;;30.50;99.90;;;;;;8372209;28;20223;-69
2022/07/01 08:45:44;;;;;;;11.65;10.65;;;30.60;99.90;;;;;;8371457;28;20191;-63
2022/07/01 08:49:45;;;;;;;13.70;11.38;;;30.90;99.90;;;;;;8368092;28;20208;-69
2022/07/01 08:53:46;;;;;;;11.88;10.88;;;30.90;99.90;;;;;;8367517;28;20181;-71
2022/07/01 08:57:47;;;;;;;11.63;10.43;;;30.70;99.90;;;;;;8365966;28;20207;-65
2022/07/01 09:01:56;;;;;;;10.70;9.65;;;30.70;99.90;;;;;;8375205;28;20221;-65
2022/07/01 09:05:56;;;;;;;11.20;10.20;;;30.90;99.90;;;;;;8379807;28;20204;-68
2022/07/01 09:10:17;;;;;;;11.15;9.90;;;30.80;99.90;;;;;;8373293;28;20241;-68
2022/07/01 09:14:18;;;;;;;12.05;9.95;;;30.70;99.90;;;;;;8373612;28;20182;-68
2022/07/01 09:18:19;;;;;;;10.88;9.82;;;31.10;99.90;;;;;;8365072;28;20185;-67
2022/07/01 09:22:19;;;;;;;10.52;9.52;;;31.10;99.90;;;;;;8376350;28;20192;-67
2022/07/01 09:26:21;;;;;;;9.55;8.65;;;31.40;99.90;;;;;;8377380;28;20564;-69
2022/07/01 09:30:27;;;;;;;9.27;8.43;;;31.30;99.90;;;;;;8370887;28;20298;-67
2022/07/01 09:34:33;;;;;;;9.73;8.77;;;31.20;43.80;;;;;;8377315;28;20207;-68
2022/07/01 09:38:34;;;;;;;9.43;8.57;;;31.20;88.10;;;;;;8372137;28;20182;-71
2022/07/01 09:42:48;;;;;;;8.00;7.40;;;31.60;66.90;;;;;;8380607;28;20197;-66
2022/07/01 09:46:53;;;;;;;9.82;8.63;;;31.90;2.60;;;;;;8374710;28;20273;-65
2022/07/01 09:50:54;;;;;;;8.15;7.35;;;31.60;50.80;;;;;;8374902;28;20178;-67
2022/07/01 09:54:55;;;;;;;10.63;7.57;;;31.20;91.30;;;;;;8373908;28;20196;-68
2022/07/01 09:58:56;;;;;;;8.70;7.80;;;30.90;93.70;;;;;;8376552;28;20181;-69
2022/07/01 10:02:58;;;;;;;8.48;7.03;;;30.80;99.00;;;;;;8381054;28;20188;-68
2022/07/01 10:07:28;;;;;;;7.32;6.70;;;30.80;99.90;;;;;;8378360;28;20232;-65
2022/07/01 10:11:50;;;;;;;9.20;6.10;;;30.80;99.90;;;;;;8379380;28;20213;-69
2022/07/01 10:15:52;;;;;;;7.18;6.47;;;30.90;99.90;;;;;;8373475;28;20199;-65
2022/07/01 10:20:06;;;;;;;9.00;7.15;;;30.80;91.20;;;;;;8371126;28;20204;-68
2022/07/01 10:24:16;;;;;;;7.30;6.47;;;30.40;75.60;;;;;;8378733;28;20178;-67
2022/07/01 10:28:26;;;;;;;7.38;6.65;;;30.30;99.90;;;;;;8371610;28;20304;-67
2022/07/01 10:32:28;;;;;;;9.55;6.63;;;30.20;99.90;;;;;;8374024;28;20189;-65
2022/07/01 10:36:32;;;;;;;9.93;6.82;;;29.80;99.90;;;;;;8382249;28;20188;-68
2022/07/01 10:40:48;;;;;;;10.18;6.55;;;29.50;99.90;;;;;;8373311;28;20182;-69
2022/07/01 10:45:09;;;;;;;8.75;7.22;;;29.30;99.90;;;;;;8378026;28;20181;-69
2022/07/01 10:49:15;;;;;;;10.02;7.30;;;29.20;99.90;;;;;;8372658;28;20216;-66
2022/07/01 10:53:16;;;;;;;7.57;6.80;;;29.30;99.90;;;;;;8373117;28;20178;-66
2022/07/01 10:57:18;;;;;;;8.45;7.22;;;29.20;99.90;;;;;;8373114;28;20225;-68
2022/07/01 11:01:19;;;;;;;9.48;7.50;;;29.40;99.90;;;;;;8377104;28;20178;-67
2022/07/01 11:05:19;;;;;;;10.38;8.00;;;29.30;99.90;;;;;;8372799;28;20320;-67
2022/07/01 11:09:21;;;;;;;8.85;8.07;;;29.00;99.90;;;;;;8375218;28;20275;-65
2022/07/01 11:13:22;;;;;;;14.95;8.05;;;28.70;99.90;;;;;;8377278;28;20189;-66
2022/07/01 11:17:22;;;;;;;13.07;9.40;;;28.60;99.90;;;;;;8366479;28;20186;-66
2022/07/01 11:21:24;;;;;;;8.75;7.85;;;28.30;99.90;;;;;;8366152;28;20185;-67
2022/07/01 11:25:26;;;;;;;11.65;8.38;;;28.00;99.90;;;;;;8372583;28;20204;-65
2022/07/01 11:29:28;;;;;;;19.60;9.93;;;27.80;99.90;;;;;;8363342;28;20225;-67
2022/07/01 11:33:29;;;;;;;12.23;9.18;;;27.60;1.00;;;;;;8369580;28;20181;-67
2022/07/01 11:42:04;;;;;;;13.02;11.23;;;27.20;1.00;;;;;;8369581;28;20193;-68
2022/07/01 11:46:06;;;;;;;15.30;12.48;;;27.00;31.10;;;;;;8376490;28;20197;-67
2022/07/01 11:50:07;;;;;;;15.88;12.90;;;26.80;92.50;;;;;;8372598;28;20220;-66
2022/07/01 11:54:21;;;;;;;15.20;13.55;;;26.50;99.90;;;;;;8366826;28;20166;-68
2022/07/01 11:58:22;;;;;;;15.65;13.90;;;26.30;99.90;;;;;;8369223;28;20190;-67
2022/07/01 12:02:24;;;;;;;17.20;14.00;;;26.10;99.90;;;;;;8372482;28;20208;-68
2022/07/01 12:06:26;;;;;;;13.80;12.45;;;26.00;1.00;;;;;;8368257;28;20206;-66
2022/07/01 12:10:28;;;;;;;17.23;13.48;;;25.90;99.90;;;;;;8369123;28;20185;-65
2022/07/01 12:14:34;;;;;;;11.18;9.88;;;25.80;99.90;;;;;;8375536;28;20178;-68
2022/07/01 12:18:35;;;;;;;13.87;10.83;;;25.60;99.90;;;;;;8373710;28;20189;-68
2022/07/01 12:22:36;;;;;;;10.70;9.57;;;25.40;99.90;;;;;;8378598;28;20215;-69
2022/07/01 12:26:49;;;;;;;15.43;10.47;;;25.20;1.00;;;;;;8372768;28;20219;-68
2022/07/01 12:30:59;;;;;;;12.93;10.37;;;25.00;1.00;;;;;;8374155;28;20193;-68
2022/07/01 12:39:28;;;;;;;9.97;9.13;;;25.20;1.00;;;;;;8367679;28;20191;-66
2022/07/01 12:43:37;;;;;;;10.10;8.95;;;25.40;99.90;;;;;;8371465;28;20182;-66
2022/07/01 12:47:50;;;;;;;12.68;9.27;;;25.90;1.00;;;;;;8374416;28;20204;-69
2022/07/01 12:51:53;;;;;;;12.23;9.05;;;26.40;99.90;;;;;;8366551;28;20193;-65
2022/07/01 12:55:56;;;;;;;11.27;9.98;;;26.20;1.00;;;;;;8368853;28;20174;-66
2022/07/01 12:59:57;;;;;;;10.70;9.70;;;25.70;1.00;;;;;;8365656;28;20181;-68
2022/07/01 13:03:58;;;;;;;12.70;10.00;;;25.40;1.00;;;;;;8373198;28;20204;-67
2022/07/01 13:07:59;;;;;;;10.00;8.93;;;25.20;25.00;;;;;;8378084;28;20258;-67
2022/07/01 13:12:00;;;;;;;8.80;8.00;;;25.00;1.00;;;;;;8376258;28;20178;-68
2022/07/01 13:16:01;;;;;;;9.13;8.23;;;25.00;1.00;;;;;;8379748;28;20184;-66
2022/07/01 13:20:03;;;;;;;10.70;9.70;;;25.10;1.00;;;;;;8374826;28;20209;-68
2022/07/01 13:24:04;;;;;;;8.93;8.03;;;25.10;99.90;;;;;;8373247;28;20217;-67
2022/07/01 13:28:05;;;;;;;8.57;7.70;;;25.20;99.90;;;;;;8376486;28;20201;-66
2022/07/01 13:32:06;;;;;;;11.90;8.10;;;25.00;99.90;;;;;;8373475;28;20205;-70
2022/07/01 13:36:07;;;;;;;11.57;9.33;;;24.60;99.90;;;;;;8372736;28;20242;-67
2022/07/01 13:40:09;;;;;;;10.37;9.20;;;24.40;99.90;;;;;;8374261;28;20190;-66
2022/07/01 13:44:10;;;;;;;9.53;8.63;;;24.00;1.00;;;;;;8370764;28;20197;-66
2022/07/01 13:48:11;;;;;;;9.43;8.00;;;23.70;29.80;;;;;;8379711;28;20213;-68
2022/07/01 13:52:12;;;;;;;8.10;7.20;;;23.50;81.10;;;;;;8375738;28;20182;-66
2022/07/01 13:56:13;;;;;;;8.67;7.70;;;23.30;99.90;;;;;;8371269;28;20181;-67
2022/07/01 14:00:15;;;;;;;7.27;6.60;;;23.20;99.90;;;;;;8379914;28;20248;-66
2022/07/01 14:04:16;;;;;;;10.03;7.10;;;23.20;99.90;;;;;;8377728;28;20235;-67
2022/07/01 14:08:17;;;;;;;13.43;7.67;;;23.10;99.90;;;;;;8371090;28;20228;-64
2022/07/01 14:12:17;;;;;;;8.47;7.57;;;22.90;1.00;;;;;;8369722;28;20189;-66
2022/07/01 14:16:18;;;;;;;8.50;7.67;;;22.50;1.00;;;;;;8370430;28;20185;-67
2022/07/01 14:20:19;;;;;;;10.23;7.60;;;22.10;99.90;;;;;;8371382;28;20215;-67
2022/07/01 14:24:20;;;;;;;6.80;6.10;;;21.90;1.00;;;;;;8373132;28;20196;-68
2022/07/01 14:28:21;;;;;;;7.33;5.77;;;21.60;99.90;;;;;;8368083;28;20213;-65
2022/07/01 14:32:26;;;;;;;8.10;5.70;;;21.10;99.90;;;;;;8375876;28;20177;-66
2022/07/01 14:36:27;;;;;;;6.13;5.20;;;20.80;99.90;;;;;;8368044;28;20185;-67
2022/07/01 14:40:28;;;;;;;8.47;5.60;;;20.60;1.00;;;;;;8371581;28;20177;-69
2022/07/01 14:44:29;;;;;;;5.57;4.97;;;20.50;99.90;;;;;;8367234;28;20189;-66
2022/07/01 14:48:29;;;;;;;5.67;5.13;;;20.40;99.90;;;;;;8378943;28;20300;-65
2022/07/01 14:52:31;;;;;;;7.07;4.30;;;20.30;27.70;;;;;;8376567;28;20223;-66
2022/07/01 14:56:31;;;;;;;5.80;4.33;;;20.10;1.00;;;;;;8367292;28;20177;-67
2022/07/01 15:00:36;;;;;;;7.57;3.90;;;20.10;1.00;;;;;;8374887;28;20423;-67
2022/07/01 15:04:40;;;;;;;7.63;3.93;;;20.00;1.00;;;;;;8371180;28;20198;-65
2022/07/01 15:08:41;;;;;;;4.37;3.40;;;20.00;99.90;;;;;;8371333;28;20213;-68
2022/07/01 15:12:42;;;;;;;6.30;3.50;;;20.00;99.90;;;;;;8364614;28;20193;-65
2022/07/01 15:16:43;;;;;;;5.47;3.47;;;20.00;99.90;;;;;;8373202;28;20174;-69
2022/07/01 15:20:43;;;;;;;3.43;3.00;;;20.00;99.90;;;;;;8381857;28;20200;-67
2022/07/01 15:24:44;;;;;;;3.40;2.93;;;20.10;99.90;;;;;;8366956;28;20182;-67
2022/07/01 15:28:45;;;;;;;5.33;3.07;;;20.10;1.00;;;;;;8365728;28;20213;-67
2022/07/01 15:32:46;;;;;;;3.00;2.80;;;20.30;4.40;;;;;;8367776;28;20174;-66
2022/07/01 15:36:47;;;;;;;3.00;2.70;;;20.40;1.00;;;;;;8369003;28;20174;-67
2022/07/01 15:40:48;;;;;;;2.27;2.07;;;20.50;1.00;;;;;;8364386;28;20182;-68
2022/07/01 15:44:49;;;;;;;4.67;2.83;;;20.50;99.90;;;;;;8368354;28;20253;-69
2022/07/01 15:48:49;;;;;;;3.60;2.80;;;20.50;99.90;;;;;;8365338;28;20289;-66
2022/07/01 15:52:51;;;;;;;2.70;2.50;;;20.40;99.90;;;;;;8366806;28;20189;-68
2022/07/01 15:56:52;;;;;;;8.30;3.30;;;20.50;99.90;;;;;;8362390;28;20169;-69
2022/07/01 16:00:53;;;;;;;3.87;2.93;;;20.40;99.90;;;;;;8371681;28;20182;-68
2022/07/01 16:04:54;;;;;;;3.37;3.07;;;20.30;99.90;;;;;;8368050;28;20278;-66
2022/07/01 16:08:59;;;;;;;4.70;2.67;;;20.20;99.90;;;;;;8372455;28;20287;-68
2022/07/01 16:13:02;;;;;;;2.70;2.50;;;20.40;99.90;;;;;;8369902;28;20276;-66
2022/07/01 16:17:05;;;;;;;2.60;2.37;;;20.50;1.00;;;;;;8372506;28;20188;-69
2022/07/01 16:21:06;;;;;;;3.77;2.77;;;20.40;1.00;;;;;;8373301;28;20317;-66
2022/07/01 16:25:11;;;;;;;2.33;2.23;;;20.40;1.00;;;;;;8377231;28;20181;-66
2022/07/01 16:29:14;;;;;;;3.23;2.20;;;20.30;1.00;;;;;;8372045;28;20214;-66
2022/07/01 16:33:15;;;;;;;2.63;2.37;;;20.50;1.00;;;;;;8366580;28;20272;-68
2022/07/01 16:37:16;;;;;;;2.57;2.37;;;20.60;99.90;;;;;;8378607;28;20483;-67
2022/07/01 16:41:29;;;;;;;2.60;2.40;;;20.50;99.90;;;;;;8380178;28;20192;-67
2022/07/01 16:45:37;;;;;;;2.50;2.30;;;20.40;99.90;;;;;;8384088;28;20188;-67
2022/07/01 16:49:46;;;;;;;2.50;2.30;;;20.10;99.90;;;;;;8377117;28;20240;-68
2022/07/01 16:53:48;;;;;;;2.50;2.30;;;19.90;1.00;;;;;;8387396;28;20338;-68
2022/07/01 16:57:51;;;;;;;2.30;2.10;;;19.90;1.00;;;;;;8381028;28;20208;-68
2022/07/01 17:01:53;;;;;;;1.90;1.80;;;19.80;1.00;;;;;;8372658;28;20196;-66
2022/07/01 17:05:55;;;;;;;3.10;1.60;;;19.60;1.00;;;;;;8383949;28;20229;-68
2022/07/01 17:09:58;;;;;;;2.80;1.87;;;19.50;1.00;;;;;;8377829;28;20211;-67
2022/07/01 17:13:59;;;;;;;2.90;1.57;;;19.40;1.00;;;;;;8386283;28;20188;-68
2022/07/01 17:18:00;;;;;;;2.70;1.30;;;19.40;48.50;;;;;;8381783;28;20201;-67
2022/07/01 17:22:08;;;;;;;2.03;1.50;;;19.30;1.00;;;;;;8377979;28;20249;-67
2022/07/01 17:26:11;;;;;;;3.90;1.70;;;19.30;1.00;;;;;;8381448;28;20186;-67
2022/07/01 17:30:13;;;;;;;1.73;1.63;;;19.20;1.00;;;;;;8380310;28;20217;-68
2022/07/01 17:34:15;;;;;;;2.60;2.10;;;19.10;99.90;;;;;;8377526;28;20221;-70
2022/07/01 17:38:20;;;;;;;2.63;2.27;;;18.90;1.00;;;;;;8384408;28;20189;-67
2022/07/01 17:42:22;;;;;;;2.67;2.47;;;18.80;1.00;;;;;;8378021;28;20336;-67
2022/07/01 17:46:24;;;;;;;3.00;2.07;;;18.70;1.00;;;;;;8374649;28;20185;-69
2022/07/01 17:50:26;;;;;;;2.40;2.20;;;18.70;99.90;;;;;;8380691;28;20217;-67
2022/07/01 17:54:29;;;;;;;2.50;2.30;;;18.70;1.00;;;;;;8372602;28;20214;-67
2022/07/01 17:58:32;;;;;;;2.53;2.33;;;18.70;1.00;;;;;;8376001;28;20245;-66
2022/07/01 18:02:38;;;;;;;2.30;2.10;;;18.70;1.30;;;;;;8375294;28;20190;-68
2022/07/01 18:06:41;;;;;;;1.80;1.70;;;18.60;18.50;;;;;;8373644;28;20212;-67
2022/07/01 18:10:50;;;;;;;3.07;1.80;;;18.60;99.90;;;;;;8371014;28;20204;-68
2022/07/01 18:15:12;;;;;;;1.60;1.50;;;18.60;47.80;;;;;;8379504;28;20213;-67
2022/07/01 18:19:29;;;;;;;3.80;1.77;;;18.50;99.90;;;;;;8372240;28;20185;-68
2022/07/01 18:23:40;;;;;;;1.50;1.40;;;18.40;99.90;;;;;;8372470;28;20242;-68
2022/07/01 18:27:42;;;;;;;2.63;1.43;;;18.40;99.90;;;;;;8376469;28;20209;-67
2022/07/01 18:31:45;;;;;;;1.77;1.47;;;18.40;87.70;;;;;;8376764;28;20271;-68
2022/07/01 18:35:50;;;;;;;1.60;1.50;;;18.30;99.90;;;;;;8380667;28;20185;-68
2022/07/01 18:39:50;;;;;;;4.03;1.90;;;18.30;99.90;;;;;;8377062;28;20185;-68
2022/07/01 18:43:51;;;;;;;2.10;1.90;;;18.20;99.90;;;;;;8372900;28;20192;-67
2022/07/01 18:47:53;;;;;;;2.30;1.70;;;18.10;99.90;;;;;;8367414;28;20303;-68
2022/07/01 18:51:53;;;;;;;3.90;1.87;;;18.10;99.90;;;;;;8370768;28;20217;-68
2022/07/01 18:55:54;;;;;;;1.70;1.60;;;18.00;99.90;;;;;;8371338;28;20178;-67
2022/07/01 18:59:55;;;;;;;2.47;1.80;;;18.00;99.90;;;;;;8377464;28;20177;-68
2022/07/01 19:03:56;;;;;;;3.23;1.73;;;17.90;99.90;;;;;;8377573;28;20192;-67
2022/07/01 19:07:58;;;;;;;3.10;1.70;;;17.80;99.90;;;;;;8379405;28;20202;-67
2022/07/01 19:11:58;;;;;;;1.60;1.50;;;17.80;1.00;;;;;;8374929;28;20483;-65
2022/07/01 19:15:59;;;;;;;2.50;1.93;;;17.80;1.00;;;;;;8375876;28;20177;-67
2022/07/01 19:20:01;;;;;;;2.77;1.40;;;17.80;1.00;;;;;;8368761;28;20212;-67
2022/07/01 19:24:02;;;;;;;2.23;1.70;;;17.80;1.00;;;;;;8373216;28;20187;-67
2022/07/01 19:28:04;;;;;;;1.93;1.53;;;17.80;1.00;;;;;;8372547;28;20241;-67
2022/07/01 19:32:05;;;;;;;1.70;1.43;;;17.80;1.00;;;;;;8373581;28;20261;-66
2022/07/01 19:36:07;;;;;;;2.10;1.70;;;17.80;99.90;;;;;;8368238;28;20237;-69
2022/07/01 19:40:09;;;;;;;1.73;1.50;;;17.80;99.90;;;;;;8371193;28;20253;-67
2022/07/01 19:44:10;;;;;;;2.20;1.47;;;17.80;99.90;;;;;;8377810;28;20213;-67
2022/07/01 19:48:10;;;;;;;1.67;1.57;;;17.70;35.90;;;;;;8370814;28;20212;-70
2022/07/01 19:52:13;;;;;;;1.73;1.37;;;17.70;1.00;;;;;;8372494;28;20197;-67
2022/07/01 19:56:15;;;;;;;1.53;1.43;;;17.70;1.00;;;;;;8374177;28;20277;-68
2022/07/01 20:00:16;;;;;;;1.17;1.07;;;17.60;1.00;;;;;;8369501;28;20194;-66
2022/07/01 20:04:19;;;;;;;1.47;1.30;;;17.60;1.00;;;;;;8367935;28;20197;-68
2022/07/01 20:08:20;;;;;;;2.70;1.53;;;17.50;1.00;;;;;;8372953;28;20296;-69
2022/07/01 20:12:21;;;;;;;1.73;1.40;;;17.50;99.90;;;;;;8363769;28;20184;-67
2022/07/01 20:16:22;;;;;;;2.20;1.67;;;17.40;99.90;;;;;;8373520;28;20186;-69
2022/07/01 20:20:23;;;;;;;1.97;1.60;;;17.40;99.90;;;;;;8370959;28;20272;-66
2022/07/01 20:24:25;;;;;;;1.43;1.33;;;17.30;99.90;;;;;;8376224;28;20274;-69
2022/07/01 20:28:26;;;;;;;3.10;1.70;;;17.30;99.90;;;;;;8365590;28;20261;-69
2022/07/01 20:32:27;;;;;;;1.67;1.50;;;17.20;99.90;;;;;;8373764;28;20188;-67
2022/07/01 20:36:28;;;;;;;1.83;1.73;;;17.10;99.90;;;;;;8374149;28;20177;-67
2022/07/01 20:40:29;;;;;;;2.40;1.73;;;17.10;99.90;;;;;;8368573;28;20205;-69
2022/07/01 20:44:29;;;;;;;1.90;1.70;;;17.10;99.90;;;;;;8373733;28;20279;-67
2022/07/01 20:48:30;;;;;;;3.23;1.93;;;17.10;99.90;;;;;;8367433;28;20209;-71
2022/07/01 20:52:31;;;;;;;2.17;1.67;;;17.10;99.90;;;;;;8370683;28;20223;-68
2022/07/01 20:56:32;;;;;;;2.80;1.90;;;17.10;99.90;;;;;;8367846;28;20303;-68
2022/07/01 21:00:33;;;;;;;1.80;1.70;;;17.10;99.90;;;;;;8371785;28;20215;-68
2022/07/01 21:04:34;;;;;;;1.90;1.50;;;17.10;99.90;;;;;;8372968;28;20198;-66
2022/07/01 21:08:35;;;;;;;2.90;1.87;;;17.10;99.90;;;;;;8366433;28;20333;-68
2022/07/01 21:12:36;;;;;;;2.00;1.80;;;17.10;99.90;;;;;;8377024;28;20174;-66